sensor_id;sensor_type;location;lat;lon;timestamp;P1;durP1;ratioP1;P2;durP2;ratioP2
1414;SDS011;702;49.466;11.086;2023-04-03T00:00:52;2.83;;;2.60;;
1414;SDS011;702;49.466;11.086;2023-04-03T00:03:19;2.67;;;2.47;;
1414;SDS011;702;49.466;11.086;2023-04-03T00:05:47;2.20;;;2.10;;
1414;SDS011;702;49.466;11.086;2023-04-03T00:08:14;2.93;;;2.63;;
1414;SDS011;702;49.466;11.086;2023-04-03T00:10:41;2.60;;;2.40;;
1414;SDS011;702;49.466;11.086;2023-04-03T00:13:10;2.20;;;2.00;;
1414;SDS011;702;49.466;11.086;2023-04-03T00:15:38;3.03;;;2.40;;
1414;SDS011;702;49.466;11.086;2023-04-03T00:18:07;6.43;;;2.60;;
1414;SDS011;702;49.466;11.086;2023-04-03T00:20:34;3.10;;;2.80;;
1414;SDS011;702;49.466;11.086;2023-04-03T00:23:02;2.87;;;2.60;;
1414;SDS011;702;49.466;11.086;2023-04-03T00:25:30;2.70;;;2.20;;
1414;SDS011;702;49.466;11.086;2023-04-03T00:27:57;5.63;;;2.57;;
1414;SDS011;702;49.466;11.086;2023-04-03T00:30:26;3.10;;;2.57;;
1414;SDS011;702;49.466;11.086;2023-04-03T00:32:53;4.13;;;2.60;;
1414;SDS011;702;49.466;11.086;2023-04-03T00:35:21;3.57;;;3.27;;
1414;SDS011;702;49.466;11.086;2023-04-03T00:37:50;3.20;;;2.90;;
1414;SDS011;702;49.466;11.086;2023-04-03T00:40:19;3.30;;;2.97;;
1414;SDS011;702;49.466;11.086;2023-04-03T00:42:51;4.00;;;2.93;;
1414;SDS011;702;49.466;11.086;2023-04-03T00:45:29;3.60;;;3.13;;
1414;SDS011;702;49.466;11.086;2023-04-03T00:48:00;3.33;;;2.70;;
1414;SDS011;702;49.466;11.086;2023-04-03T00:50:31;4.80;;;2.60;;
1414;SDS011;702;49.466;11.086;2023-04-03T00:53:01;2.57;;;2.30;;
1414;SDS011;702;49.466;11.086;2023-04-03T00:55:29;3.77;;;2.40;;
1414;SDS011;702;49.466;11.086;2023-04-03T00:57:57;2.60;;;2.33;;
1414;SDS011;702;49.466;11.086;2023-04-03T01:00:28;2.73;;;2.50;;
1414;SDS011;702;49.466;11.086;2023-04-03T01:02:55;3.00;;;2.70;;
1414;SDS011;702;49.466;11.086;2023-04-03T01:05:23;2.80;;;2.60;;
1414;SDS011;702;49.466;11.086;2023-04-03T01:07:50;2.90;;;2.70;;
1414;SDS011;702;49.466;11.086;2023-04-03T01:10:18;3.30;;;3.00;;
1414;SDS011;702;49.466;11.086;2023-04-03T01:12:47;3.00;;;2.70;;
1414;SDS011;702;49.466;11.086;2023-04-03T01:15:18;3.40;;;2.43;;
1414;SDS011;702;49.466;11.086;2023-04-03T01:17:50;3.23;;;2.70;;
1414;SDS011;702;49.466;11.086;2023-04-03T01:20:26;3.20;;;2.90;;
1414;SDS011;702;49.466;11.086;2023-04-03T01:24:02;2.93;;;2.50;;
1414;SDS011;702;49.466;11.086;2023-04-03T01:26:41;2.63;;;2.43;;
1414;SDS011;702;49.466;11.086;2023-04-03T01:29:09;3.07;;;2.77;;
1414;SDS011;702;49.466;11.086;2023-04-03T01:31:51;3.77;;;3.00;;
1414;SDS011;702;49.466;11.086;2023-04-03T01:34:20;3.53;;;3.00;;
1414;SDS011;702;49.466;11.086;2023-04-03T01:36:47;2.90;;;2.27;;
1414;SDS011;702;49.466;11.086;2023-04-03T01:39:17;3.60;;;2.87;;
1414;SDS011;702;49.466;11.086;2023-04-03T01:41:45;3.30;;;2.63;;
1414;SDS011;702;49.466;11.086;2023-04-03T01:44:12;2.93;;;2.57;;
1414;SDS011;702;49.466;11.086;2023-04-03T01:46:40;3.03;;;2.83;;
1414;SDS011;702;49.466;11.086;2023-04-03T01:49:09;2.70;;;2.40;;
1414;SDS011;702;49.466;11.086;2023-04-03T01:51:36;3.20;;;2.90;;
1414;SDS011;702;49.466;11.086;2023-04-03T01:54:03;3.00;;;2.03;;
1414;SDS011;702;49.466;11.086;2023-04-03T01:56:30;3.53;;;2.37;;
1414;SDS011;702;49.466;11.086;2023-04-03T01:58:58;3.50;;;2.90;;
1414;SDS011;702;49.466;11.086;2023-04-03T02:01:25;2.57;;;2.40;;
1414;SDS011;702;49.466;11.086;2023-04-03T02:03:52;3.10;;;2.80;;
1414;SDS011;702;49.466;11.086;2023-04-03T02:06:21;3.17;;;2.70;;
1414;SDS011;702;49.466;11.086;2023-04-03T02:08:48;2.47;;;2.27;;
1414;SDS011;702;49.466;11.086;2023-04-03T02:11:15;2.33;;;2.20;;
1414;SDS011;702;49.466;11.086;2023-04-03T02:13:43;2.67;;;2.43;;
1414;SDS011;702;49.466;11.086;2023-04-03T02:16:10;4.97;;;3.33;;
1414;SDS011;702;49.466;11.086;2023-04-03T02:18:38;2.63;;;2.40;;
1414;SDS011;702;49.466;11.086;2023-04-03T02:21:06;3.70;;;3.33;;
1414;SDS011;702;49.466;11.086;2023-04-03T02:23:34;3.40;;;2.77;;
1414;SDS011;702;49.466;11.086;2023-04-03T02:26:04;4.13;;;2.57;;
1414;SDS011;702;49.466;11.086;2023-04-03T02:28:34;2.90;;;2.60;;
1414;SDS011;702;49.466;11.086;2023-04-03T02:31:01;3.07;;;2.40;;
1414;SDS011;702;49.466;11.086;2023-04-03T02:33:30;2.50;;;2.30;;
1414;SDS011;702;49.466;11.086;2023-04-03T02:35:57;3.30;;;3.00;;
1414;SDS011;702;49.466;11.086;2023-04-03T02:38:25;3.93;;;2.87;;
1414;SDS011;702;49.466;11.086;2023-04-03T02:40:57;3.10;;;2.80;;
1414;SDS011;702;49.466;11.086;2023-04-03T02:43:27;5.20;;;2.60;;
1414;SDS011;702;49.466;11.086;2023-04-03T02:45:54;3.10;;;2.40;;
1414;SDS011;702;49.466;11.086;2023-04-03T02:48:21;6.63;;;2.73;;
1414;SDS011;702;49.466;11.086;2023-04-03T02:50:49;2.90;;;2.40;;
1414;SDS011;702;49.466;11.086;2023-04-03T02:53:16;3.90;;;2.97;;
1414;SDS011;702;49.466;11.086;2023-04-03T02:55:43;2.57;;;2.37;;
1414;SDS011;702;49.466;11.086;2023-04-03T02:58:15;6.77;;;2.70;;
1414;SDS011;702;49.466;11.086;2023-04-03T03:00:42;3.63;;;2.50;;
1414;SDS011;702;49.466;11.086;2023-04-03T03:03:09;3.03;;;2.73;;
1414;SDS011;702;49.466;11.086;2023-04-03T03:05:38;3.03;;;2.40;;
1414;SDS011;702;49.466;11.086;2023-04-03T03:08:06;4.20;;;3.13;;
1414;SDS011;702;49.466;11.086;2023-04-03T03:10:33;5.70;;;3.27;;
1414;SDS011;702;49.466;11.086;2023-04-03T03:13:00;4.80;;;3.30;;
1414;SDS011;702;49.466;11.086;2023-04-03T03:15:29;4.60;;;3.57;;
1414;SDS011;702;49.466;11.086;2023-04-03T03:17:56;3.43;;;3.03;;
1414;SDS011;702;49.466;11.086;2023-04-03T03:20:24;2.70;;;2.37;;
1414;SDS011;702;49.466;11.086;2023-04-03T03:22:51;4.17;;;3.00;;
1414;SDS011;702;49.466;11.086;2023-04-03T03:25:19;3.77;;;3.30;;
1414;SDS011;702;49.466;11.086;2023-04-03T03:27:47;4.07;;;3.67;;
1414;SDS011;702;49.466;11.086;2023-04-03T03:30:15;3.43;;;3.13;;
1414;SDS011;702;49.466;11.086;2023-04-03T03:32:43;4.03;;;2.80;;
1414;SDS011;702;49.466;11.086;2023-04-03T03:35:12;3.63;;;3.33;;
1414;SDS011;702;49.466;11.086;2023-04-03T03:37:39;4.33;;;3.60;;
1414;SDS011;702;49.466;11.086;2023-04-03T03:40:07;4.43;;;3.33;;
1414;SDS011;702;49.466;11.086;2023-04-03T03:42:38;4.97;;;3.20;;
1414;SDS011;702;49.466;11.086;2023-04-03T03:45:05;4.43;;;3.20;;
1414;SDS011;702;49.466;11.086;2023-04-03T03:47:34;3.30;;;3.00;;
1414;SDS011;702;49.466;11.086;2023-04-03T03:50:03;5.83;;;3.97;;
1414;SDS011;702;49.466;11.086;2023-04-03T03:52:31;5.77;;;3.90;;
1414;SDS011;702;49.466;11.086;2023-04-03T03:54:59;4.93;;;3.10;;
1414;SDS011;702;49.466;11.086;2023-04-03T03:57:26;4.97;;;3.30;;
1414;SDS011;702;49.466;11.086;2023-04-03T03:59:53;3.73;;;3.43;;
1414;SDS011;702;49.466;11.086;2023-04-03T04:02:21;7.30;;;3.40;;
1414;SDS011;702;49.466;11.086;2023-04-03T04:04:51;4.67;;;3.33;;
1414;SDS011;702;49.466;11.086;2023-04-03T04:07:21;3.90;;;3.20;;
1414;SDS011;702;49.466;11.086;2023-04-03T04:09:48;5.40;;;3.90;;
1414;SDS011;702;49.466;11.086;2023-04-03T04:12:16;4.77;;;4.20;;
1414;SDS011;702;49.466;11.086;2023-04-03T04:14:43;4.20;;;3.80;;
1414;SDS011;702;49.466;11.086;2023-04-03T04:17:12;7.90;;;4.20;;
1414;SDS011;702;49.466;11.086;2023-04-03T04:19:39;6.50;;;4.27;;
1414;SDS011;702;49.466;11.086;2023-04-03T04:22:06;6.10;;;4.43;;
1414;SDS011;702;49.466;11.086;2023-04-03T04:24:35;4.40;;;3.73;;
1414;SDS011;702;49.466;11.086;2023-04-03T04:27:02;5.30;;;4.40;;
1414;SDS011;702;49.466;11.086;2023-04-03T04:29:30;4.57;;;4.17;;
1414;SDS011;702;49.466;11.086;2023-04-03T04:32:00;5.63;;;4.03;;
1414;SDS011;702;49.466;11.086;2023-04-03T04:34:27;6.07;;;4.30;;
1414;SDS011;702;49.466;11.086;2023-04-03T04:36:55;10.00;;;4.70;;
1414;SDS011;702;49.466;11.086;2023-04-03T04:39:22;4.77;;;4.33;;
1414;SDS011;702;49.466;11.086;2023-04-03T04:41:51;5.90;;;4.43;;
1414;SDS011;702;49.466;11.086;2023-04-03T04:44:18;11.07;;;4.30;;
1414;SDS011;702;49.466;11.086;2023-04-03T04:46:46;9.20;;;5.40;;
1414;SDS011;702;49.466;11.086;2023-04-03T04:49:13;6.20;;;4.80;;
1414;SDS011;702;49.466;11.086;2023-04-03T04:51:41;8.00;;;4.97;;
1414;SDS011;702;49.466;11.086;2023-04-03T04:54:08;7.83;;;4.80;;
1414;SDS011;702;49.466;11.086;2023-04-03T04:56:35;6.50;;;5.30;;
1414;SDS011;702;49.466;11.086;2023-04-03T04:59:04;7.30;;;4.73;;
1414;SDS011;702;49.466;11.086;2023-04-03T05:01:31;5.93;;;4.67;;
1414;SDS011;702;49.466;11.086;2023-04-03T05:03:58;9.10;;;5.47;;
1414;SDS011;702;49.466;11.086;2023-04-03T05:06:25;5.97;;;4.43;;
1414;SDS011;702;49.466;11.086;2023-04-03T05:08:52;6.70;;;4.70;;
1414;SDS011;702;49.466;11.086;2023-04-03T05:11:20;6.73;;;5.17;;
1414;SDS011;702;49.466;11.086;2023-04-03T05:13:47;8.00;;;5.57;;
1414;SDS011;702;49.466;11.086;2023-04-03T05:16:16;5.37;;;4.37;;
1414;SDS011;702;49.466;11.086;2023-04-03T05:18:43;6.03;;;4.90;;
1414;SDS011;702;49.466;11.086;2023-04-03T05:21:10;6.67;;;4.97;;
1414;SDS011;702;49.466;11.086;2023-04-03T05:23:37;6.07;;;5.57;;
1414;SDS011;702;49.466;11.086;2023-04-03T05:26:04;5.90;;;5.30;;
1414;SDS011;702;49.466;11.086;2023-04-03T05:28:32;5.87;;;4.60;;
1414;SDS011;702;49.466;11.086;2023-04-03T05:31:02;5.70;;;5.07;;
1414;SDS011;702;49.466;11.086;2023-04-03T05:33:33;5.17;;;4.67;;
1414;SDS011;702;49.466;11.086;2023-04-03T05:36:02;6.33;;;4.60;;
1414;SDS011;702;49.466;11.086;2023-04-03T05:38:30;4.60;;;4.20;;
1414;SDS011;702;49.466;11.086;2023-04-03T05:40:58;7.30;;;5.00;;
1414;SDS011;702;49.466;11.086;2023-04-03T05:43:25;7.40;;;4.67;;
1414;SDS011;702;49.466;11.086;2023-04-03T05:45:53;4.87;;;3.90;;
1414;SDS011;702;49.466;11.086;2023-04-03T05:48:20;5.43;;;4.50;;
1414;SDS011;702;49.466;11.086;2023-04-03T05:50:48;4.97;;;4.20;;
1414;SDS011;702;49.466;11.086;2023-04-03T05:53:17;4.53;;;4.10;;
1414;SDS011;702;49.466;11.086;2023-04-03T05:55:48;4.47;;;4.00;;
1414;SDS011;702;49.466;11.086;2023-04-03T05:58:16;6.60;;;3.60;;
1414;SDS011;702;49.466;11.086;2023-04-03T06:00:44;8.33;;;4.13;;
1414;SDS011;702;49.466;11.086;2023-04-03T06:03:11;6.20;;;4.20;;
1414;SDS011;702;49.466;11.086;2023-04-03T06:05:38;3.63;;;3.33;;
1414;SDS011;702;49.466;11.086;2023-04-03T06:08:10;9.37;;;4.30;;
1414;SDS011;702;49.466;11.086;2023-04-03T06:10:38;5.43;;;3.37;;
1414;SDS011;702;49.466;11.086;2023-04-03T06:13:05;8.57;;;3.53;;
1414;SDS011;702;49.466;11.086;2023-04-03T06:15:33;5.00;;;4.10;;
1414;SDS011;702;49.466;11.086;2023-04-03T06:18:00;4.60;;;3.90;;
1414;SDS011;702;49.466;11.086;2023-04-03T06:20:27;6.00;;;3.67;;
1414;SDS011;702;49.466;11.086;2023-04-03T06:22:55;3.43;;;3.13;;
1414;SDS011;702;49.466;11.086;2023-04-03T06:25:23;4.30;;;3.57;;
1414;SDS011;702;49.466;11.086;2023-04-03T06:27:50;6.27;;;3.47;;
1414;SDS011;702;49.466;11.086;2023-04-03T06:30:17;4.17;;;3.53;;
1414;SDS011;702;49.466;11.086;2023-04-03T06:32:45;3.97;;;3.67;;
1414;SDS011;702;49.466;11.086;2023-04-03T06:35:12;4.67;;;3.63;;
1414;SDS011;702;49.466;11.086;2023-04-03T06:37:39;4.60;;;3.10;;
1414;SDS011;702;49.466;11.086;2023-04-03T06:40:09;6.73;;;3.37;;
1414;SDS011;702;49.466;11.086;2023-04-03T06:42:47;3.60;;;3.30;;
1414;SDS011;702;49.466;11.086;2023-04-03T06:45:14;3.80;;;3.50;;
1414;SDS011;702;49.466;11.086;2023-04-03T06:47:41;6.80;;;3.43;;
1414;SDS011;702;49.466;11.086;2023-04-03T06:50:10;5.27;;;3.37;;
1414;SDS011;702;49.466;11.086;2023-04-03T06:52:39;11.63;;;3.70;;
1414;SDS011;702;49.466;11.086;2023-04-03T06:55:07;5.40;;;3.60;;
1414;SDS011;702;49.466;11.086;2023-04-03T06:57:35;3.83;;;3.53;;
1414;SDS011;702;49.466;11.086;2023-04-03T07:00:05;4.70;;;3.90;;
1414;SDS011;702;49.466;11.086;2023-04-03T07:02:34;5.00;;;4.00;;
1414;SDS011;702;49.466;11.086;2023-04-03T07:05:01;6.77;;;4.47;;
1414;SDS011;702;49.466;11.086;2023-04-03T07:07:29;4.70;;;3.87;;
1414;SDS011;702;49.466;11.086;2023-04-03T07:09:56;4.07;;;3.17;;
1414;SDS011;702;49.466;11.086;2023-04-03T07:12:24;7.83;;;4.57;;
1414;SDS011;702;49.466;11.086;2023-04-03T07:14:52;3.83;;;3.53;;
1414;SDS011;702;49.466;11.086;2023-04-03T07:17:20;6.90;;;4.13;;
1414;SDS011;702;49.466;11.086;2023-04-03T07:19:47;3.63;;;3.20;;
1414;SDS011;702;49.466;11.086;2023-04-03T07:22:16;5.60;;;4.00;;
1414;SDS011;702;49.466;11.086;2023-04-03T07:24:44;8.30;;;3.87;;
1414;SDS011;702;49.466;11.086;2023-04-03T07:27:12;3.43;;;3.13;;
1414;SDS011;702;49.466;11.086;2023-04-03T07:29:39;4.40;;;4.00;;
1414;SDS011;702;49.466;11.086;2023-04-03T07:32:07;4.70;;;3.10;;
1414;SDS011;702;49.466;11.086;2023-04-03T07:34:35;8.20;;;3.50;;
1414;SDS011;702;49.466;11.086;2023-04-03T07:37:03;7.30;;;3.60;;
1414;SDS011;702;49.466;11.086;2023-04-03T07:39:32;5.40;;;3.77;;
1414;SDS011;702;49.466;11.086;2023-04-03T07:41:59;5.13;;;3.90;;
1414;SDS011;702;49.466;11.086;2023-04-03T07:44:27;4.70;;;3.10;;
1414;SDS011;702;49.466;11.086;2023-04-03T07:46:55;5.07;;;3.83;;
1414;SDS011;702;49.466;11.086;2023-04-03T07:49:22;6.13;;;3.90;;
1414;SDS011;702;49.466;11.086;2023-04-03T07:51:51;5.60;;;3.97;;
1414;SDS011;702;49.466;11.086;2023-04-03T07:54:19;5.23;;;3.77;;
1414;SDS011;702;49.466;11.086;2023-04-03T07:56:47;6.43;;;3.33;;
1414;SDS011;702;49.466;11.086;2023-04-03T07:59:14;5.77;;;3.43;;
1414;SDS011;702;49.466;11.086;2023-04-03T08:01:42;4.50;;;3.73;;
1414;SDS011;702;49.466;11.086;2023-04-03T08:04:09;4.40;;;3.50;;
1414;SDS011;702;49.466;11.086;2023-04-03T08:06:36;4.77;;;3.40;;
1414;SDS011;702;49.466;11.086;2023-04-03T08:09:04;3.50;;;3.20;;
1414;SDS011;702;49.466;11.086;2023-04-03T08:11:32;4.43;;;3.90;;
1414;SDS011;702;49.466;11.086;2023-04-03T08:13:59;4.40;;;3.73;;
1414;SDS011;702;49.466;11.086;2023-04-03T08:16:27;3.90;;;3.50;;
1414;SDS011;702;49.466;11.086;2023-04-03T08:18:55;3.57;;;3.27;;
1414;SDS011;702;49.466;11.086;2023-04-03T08:21:23;5.83;;;3.00;;
1414;SDS011;702;49.466;11.086;2023-04-03T08:23:52;3.93;;;3.53;;
1414;SDS011;702;49.466;11.086;2023-04-03T08:26:23;4.60;;;3.60;;
1414;SDS011;702;49.466;11.086;2023-04-03T08:28:51;4.40;;;3.60;;
1414;SDS011;702;49.466;11.086;2023-04-03T08:31:19;4.60;;;3.60;;
1414;SDS011;702;49.466;11.086;2023-04-03T08:33:46;4.37;;;3.67;;
1414;SDS011;702;49.466;11.086;2023-04-03T08:36:19;5.23;;;3.70;;
1414;SDS011;702;49.466;11.086;2023-04-03T08:38:48;7.77;;;3.90;;
1414;SDS011;702;49.466;11.086;2023-04-03T08:41:20;3.63;;;3.00;;
1414;SDS011;702;49.466;11.086;2023-04-03T08:44:02;8.73;;;3.80;;
1414;SDS011;702;49.466;11.086;2023-04-03T08:46:47;3.17;;;2.87;;
1414;SDS011;702;49.466;11.086;2023-04-03T08:49:28;3.47;;;3.13;;
1414;SDS011;702;49.466;11.086;2023-04-03T08:52:00;4.50;;;2.97;;
1414;SDS011;702;49.466;11.086;2023-04-03T08:54:33;3.37;;;2.33;;
1414;SDS011;702;49.466;11.086;2023-04-03T08:57:04;4.20;;;2.33;;
1414;SDS011;702;49.466;11.086;2023-04-03T08:59:33;2.97;;;2.53;;
1414;SDS011;702;49.466;11.086;2023-04-03T09:02:21;4.83;;;2.20;;
1414;SDS011;702;49.466;11.086;2023-04-03T09:04:52;4.28;;;2.70;;
1414;SDS011;702;49.466;11.086;2023-04-03T09:07:22;4.27;;;2.70;;
1414;SDS011;702;49.466;11.086;2023-04-03T09:10:00;2.87;;;2.30;;
1414;SDS011;702;49.466;11.086;2023-04-03T09:12:32;4.40;;;3.00;;
1414;SDS011;702;49.466;11.086;2023-04-03T09:15:07;3.90;;;2.93;;
1414;SDS011;702;49.466;11.086;2023-04-03T09:17:46;3.63;;;2.53;;
1414;SDS011;702;49.466;11.086;2023-04-03T09:20:26;2.73;;;2.53;;
1414;SDS011;702;49.466;11.086;2023-04-03T09:23:17;2.80;;;2.53;;
1414;SDS011;702;49.466;11.086;2023-04-03T09:25:51;3.93;;;2.70;;
1414;SDS011;702;49.466;11.086;2023-04-03T09:28:26;3.00;;;2.23;;
1414;SDS011;702;49.466;11.086;2023-04-03T09:30:54;2.70;;;2.07;;
1414;SDS011;702;49.466;11.086;2023-04-03T09:33:21;3.33;;;2.50;;
1414;SDS011;702;49.466;11.086;2023-04-03T09:35:50;4.70;;;2.20;;
1414;SDS011;702;49.466;11.086;2023-04-03T09:38:19;4.90;;;2.83;;
1414;SDS011;702;49.466;11.086;2023-04-03T09:40:48;2.83;;;2.63;;
1414;SDS011;702;49.466;11.086;2023-04-03T09:43:22;2.10;;;1.90;;
1414;SDS011;702;49.466;11.086;2023-04-03T09:48:52;2.30;;;1.90;;
1414;SDS011;702;49.466;11.086;2023-04-03T09:51:24;6.07;;;2.57;;
1414;SDS011;702;49.466;11.086;2023-04-03T09:53:53;3.70;;;2.57;;
1414;SDS011;702;49.466;11.086;2023-04-03T09:56:22;2.73;;;2.50;;
1414;SDS011;702;49.466;11.086;2023-04-03T09:59:05;2.53;;;2.20;;
1414;SDS011;702;49.466;11.086;2023-04-03T10:01:57;3.27;;;2.00;;
1414;SDS011;702;49.466;11.086;2023-04-03T10:04:26;3.43;;;2.20;;
1414;SDS011;702;49.466;11.086;2023-04-03T10:07:30;3.43;;;2.27;;
1414;SDS011;702;49.466;11.086;2023-04-03T10:09:59;3.90;;;2.60;;
1414;SDS011;702;49.466;11.086;2023-04-03T10:12:29;2.73;;;1.80;;
1414;SDS011;702;49.466;11.086;2023-04-03T10:14:59;2.57;;;2.20;;
1414;SDS011;702;49.466;11.086;2023-04-03T10:17:33;3.53;;;2.63;;
1414;SDS011;702;49.466;11.086;2023-04-03T10:20:21;4.30;;;2.40;;
1414;SDS011;702;49.466;11.086;2023-04-03T10:23:00;3.90;;;2.30;;
1414;SDS011;702;49.466;11.086;2023-04-03T10:25:43;4.27;;;2.30;;
1414;SDS011;702;49.466;11.086;2023-04-03T10:28:24;2.77;;;2.53;;
1414;SDS011;702;49.466;11.086;2023-04-03T10:31:00;2.20;;;1.90;;
1414;SDS011;702;49.466;11.086;2023-04-03T10:33:39;3.77;;;2.70;;
1414;SDS011;702;49.466;11.086;2023-04-03T10:36:23;2.83;;;2.20;;
1414;SDS011;702;49.466;11.086;2023-04-03T10:39:02;2.53;;;2.20;;
1414;SDS011;702;49.466;11.086;2023-04-03T10:41:44;2.50;;;1.60;;
1414;SDS011;702;49.466;11.086;2023-04-03T10:44:26;4.20;;;2.03;;
1414;SDS011;702;49.466;11.086;2023-04-03T10:47:05;4.00;;;1.77;;
1414;SDS011;702;49.466;11.086;2023-04-03T10:49:40;3.23;;;1.87;;
1414;SDS011;702;49.466;11.086;2023-04-03T10:52:19;2.80;;;2.50;;
1414;SDS011;702;49.466;11.086;2023-04-03T10:54:54;3.17;;;2.17;;
1414;SDS011;702;49.466;11.086;2023-04-03T10:57:30;3.60;;;2.40;;
1414;SDS011;702;49.466;11.086;2023-04-03T10:59:59;2.57;;;2.20;;
1414;SDS011;702;49.466;11.086;2023-04-03T11:02:33;4.90;;;2.23;;
1414;SDS011;702;49.466;11.086;2023-04-03T11:05:05;2.60;;;2.40;;
1414;SDS011;702;49.466;11.086;2023-04-03T11:07:42;2.00;;;1.83;;
1414;SDS011;702;49.466;11.086;2023-04-03T11:10:18;3.80;;;2.60;;
1414;SDS011;702;49.466;11.086;2023-04-03T11:12:56;2.60;;;2.40;;
1414;SDS011;702;49.466;11.086;2023-04-03T11:15:29;2.43;;;2.20;;
1414;SDS011;702;49.466;11.086;2023-04-03T11:18:00;2.87;;;2.37;;
1414;SDS011;702;49.466;11.086;2023-04-03T11:20:33;3.23;;;2.17;;
1414;SDS011;702;49.466;11.086;2023-04-03T11:23:03;4.00;;;2.40;;
1414;SDS011;702;49.466;11.086;2023-04-03T11:25:35;2.97;;;2.30;;
1414;SDS011;702;49.466;11.086;2023-04-03T11:28:05;2.40;;;1.57;;
1414;SDS011;702;49.466;11.086;2023-04-03T11:30:38;2.27;;;2.07;;
1414;SDS011;702;49.466;11.086;2023-04-03T11:33:20;3.30;;;1.80;;
1414;SDS011;702;49.466;11.086;2023-04-03T11:35:57;4.33;;;1.83;;
1414;SDS011;702;49.466;11.086;2023-04-03T11:38:29;1.90;;;1.70;;
1414;SDS011;702;49.466;11.086;2023-04-03T11:41:02;3.23;;;2.00;;
1414;SDS011;702;49.466;11.086;2023-04-03T11:43:31;6.20;;;2.20;;
1414;SDS011;702;49.466;11.086;2023-04-03T11:46:00;3.70;;;2.60;;
1414;SDS011;702;49.466;11.086;2023-04-03T11:48:44;2.20;;;2.00;;
1414;SDS011;702;49.466;11.086;2023-04-03T11:54:35;2.70;;;2.13;;
1414;SDS011;702;49.466;11.086;2023-04-03T12:03:33;2.00;;;1.90;;
1414;SDS011;702;49.466;11.086;2023-04-03T12:09:56;3.07;;;1.90;;
1414;SDS011;702;49.466;11.086;2023-04-03T12:12:28;2.20;;;1.90;;
1414;SDS011;702;49.466;11.086;2023-04-03T12:24:37;2.33;;;2.13;;
1414;SDS011;702;49.466;11.086;2023-04-03T12:27:14;2.20;;;2.00;;
1414;SDS011;702;49.466;11.086;2023-04-03T12:29:58;3.57;;;1.90;;
1414;SDS011;702;49.466;11.086;2023-04-03T12:32:35;2.30;;;2.10;;
1414;SDS011;702;49.466;11.086;2023-04-03T12:35:28;3.50;;;2.40;;
1414;SDS011;702;49.466;11.086;2023-04-03T12:43:59;2.10;;;1.90;;
1414;SDS011;702;49.466;11.086;2023-04-03T12:46:42;2.77;;;1.77;;
1414;SDS011;702;49.466;11.086;2023-04-03T12:49:14;1.90;;;1.70;;
1414;SDS011;702;49.466;11.086;2023-04-03T12:51:58;2.80;;;2.00;;
1414;SDS011;702;49.466;11.086;2023-04-03T12:54:26;2.43;;;1.90;;
1414;SDS011;702;49.466;11.086;2023-04-03T12:57:08;2.20;;;1.87;;
1414;SDS011;702;49.466;11.086;2023-04-03T12:59:37;2.40;;;1.90;;
1414;SDS011;702;49.466;11.086;2023-04-03T13:02:10;3.00;;;1.97;;
1414;SDS011;702;49.466;11.086;2023-04-03T13:04:51;3.90;;;2.07;;
1414;SDS011;702;49.466;11.086;2023-04-03T13:07:26;2.37;;;2.17;;
1414;SDS011;702;49.466;11.086;2023-04-03T13:09:59;2.13;;;1.93;;
1414;SDS011;702;49.466;11.086;2023-04-03T13:12:31;2.83;;;1.70;;
1414;SDS011;702;49.466;11.086;2023-04-03T13:14:59;3.50;;;2.10;;
1414;SDS011;702;49.466;11.086;2023-04-03T13:17:29;3.10;;;2.17;;
1414;SDS011;702;49.466;11.086;2023-04-03T13:20:11;4.60;;;2.80;;
1414;SDS011;702;49.466;11.086;2023-04-03T13:22:46;2.50;;;2.30;;
1414;SDS011;702;49.466;11.086;2023-04-03T13:25:18;3.57;;;2.50;;
1414;SDS011;702;49.466;11.086;2023-04-03T13:27:48;2.30;;;2.10;;
1414;SDS011;702;49.466;11.086;2023-04-03T13:30:19;2.60;;;2.40;;
1414;SDS011;702;49.466;11.086;2023-04-03T13:32:55;2.50;;;2.20;;
1414;SDS011;702;49.466;11.086;2023-04-03T13:35:32;2.97;;;2.20;;
1414;SDS011;702;49.466;11.086;2023-04-03T13:38:06;3.10;;;1.93;;
1414;SDS011;702;49.466;11.086;2023-04-03T13:40:50;3.30;;;1.90;;
1414;SDS011;702;49.466;11.086;2023-04-03T13:43:21;2.53;;;2.07;;
1414;SDS011;702;49.466;11.086;2023-04-03T13:45:55;2.30;;;2.07;;
1414;SDS011;702;49.466;11.086;2023-04-03T13:48:26;3.20;;;2.40;;
1414;SDS011;702;49.466;11.086;2023-04-03T13:51:02;3.30;;;3.00;;
1414;SDS011;702;49.466;11.086;2023-04-03T13:53:33;2.60;;;2.33;;
1414;SDS011;702;49.466;11.086;2023-04-03T13:56:09;3.93;;;2.50;;
1414;SDS011;702;49.466;11.086;2023-04-03T13:58:54;3.17;;;1.83;;
1414;SDS011;702;49.466;11.086;2023-04-03T14:04:20;2.30;;;2.10;;
1414;SDS011;702;49.466;11.086;2023-04-03T14:06:49;4.03;;;1.87;;
1414;SDS011;702;49.466;11.086;2023-04-03T14:09:19;3.60;;;2.43;;
1414;SDS011;702;49.466;11.086;2023-04-03T14:11:49;2.10;;;1.90;;
1414;SDS011;702;49.466;11.086;2023-04-03T14:14:31;2.30;;;2.10;;
1414;SDS011;702;49.466;11.086;2023-04-03T14:17:10;3.57;;;2.40;;
1414;SDS011;702;49.466;11.086;2023-04-03T14:19:42;2.60;;;2.40;;
1414;SDS011;702;49.466;11.086;2023-04-03T14:22:12;3.30;;;2.30;;
1414;SDS011;702;49.466;11.086;2023-04-03T14:24:45;3.00;;;2.20;;
1414;SDS011;702;49.466;11.086;2023-04-03T14:27:15;3.60;;;2.73;;
1414;SDS011;702;49.466;11.086;2023-04-03T14:29:46;4.23;;;1.90;;
1414;SDS011;702;49.466;11.086;2023-04-03T14:32:15;3.27;;;2.50;;
1414;SDS011;702;49.466;11.086;2023-04-03T14:34:45;2.43;;;2.23;;
1414;SDS011;702;49.466;11.086;2023-04-03T14:37:15;4.20;;;2.03;;
1414;SDS011;702;49.466;11.086;2023-04-03T14:39:47;2.30;;;2.10;;
1414;SDS011;702;49.466;11.086;2023-04-03T14:42:19;3.57;;;2.60;;
1414;SDS011;702;49.466;11.086;2023-04-03T14:44:48;1.80;;;1.70;;
1414;SDS011;702;49.466;11.086;2023-04-03T14:47:18;2.70;;;2.50;;
1414;SDS011;702;49.466;11.086;2023-04-03T14:49:50;3.77;;;2.47;;
1414;SDS011;702;49.466;11.086;2023-04-03T14:52:18;3.40;;;2.40;;
1414;SDS011;702;49.466;11.086;2023-04-03T14:54:50;2.73;;;2.00;;
1414;SDS011;702;49.466;11.086;2023-04-03T14:57:19;1.87;;;1.77;;
1414;SDS011;702;49.466;11.086;2023-04-03T14:59:51;2.53;;;2.20;;
1414;SDS011;702;49.466;11.086;2023-04-03T15:02:26;3.13;;;2.60;;
1414;SDS011;702;49.466;11.086;2023-04-03T15:04:57;3.70;;;2.57;;
1414;SDS011;702;49.466;11.086;2023-04-03T15:07:28;2.53;;;2.23;;
1414;SDS011;702;49.466;11.086;2023-04-03T15:10:00;2.40;;;2.20;;
1414;SDS011;702;49.466;11.086;2023-04-03T15:12:36;5.23;;;2.53;;
1414;SDS011;702;49.466;11.086;2023-04-03T15:15:04;2.37;;;2.10;;
1414;SDS011;702;49.466;11.086;2023-04-03T15:17:34;2.20;;;1.60;;
1414;SDS011;702;49.466;11.086;2023-04-03T15:20:02;3.07;;;2.00;;
1414;SDS011;702;49.466;11.086;2023-04-03T15:22:42;4.00;;;1.93;;
1414;SDS011;702;49.466;11.086;2023-04-03T15:25:11;3.13;;;2.23;;
1414;SDS011;702;49.466;11.086;2023-04-03T15:27:40;4.90;;;2.40;;
1414;SDS011;702;49.466;11.086;2023-04-03T15:30:11;2.60;;;2.20;;
1414;SDS011;702;49.466;11.086;2023-04-03T15:32:42;2.23;;;1.97;;
1414;SDS011;702;49.466;11.086;2023-04-03T15:35:10;2.40;;;2.20;;
1414;SDS011;702;49.466;11.086;2023-04-03T15:37:37;2.53;;;2.30;;
1414;SDS011;702;49.466;11.086;2023-04-03T15:40:04;3.77;;;2.13;;
1414;SDS011;702;49.466;11.086;2023-04-03T15:42:35;2.97;;;2.30;;
1414;SDS011;702;49.466;11.086;2023-04-03T15:45:02;3.20;;;2.57;;
1414;SDS011;702;49.466;11.086;2023-04-03T15:47:30;2.77;;;2.10;;
1414;SDS011;702;49.466;11.086;2023-04-03T15:49:57;12.00;;;2.50;;
1414;SDS011;702;49.466;11.086;2023-04-03T15:52:24;3.37;;;2.43;;
1414;SDS011;702;49.466;11.086;2023-04-03T15:54:52;3.20;;;2.20;;
1414;SDS011;702;49.466;11.086;2023-04-03T15:57:19;3.30;;;2.30;;
1414;SDS011;702;49.466;11.086;2023-04-03T15:59:52;3.03;;;2.33;;
1414;SDS011;702;49.466;11.086;2023-04-03T16:02:19;2.60;;;2.20;;
1414;SDS011;702;49.466;11.086;2023-04-03T16:04:47;3.60;;;2.00;;
1414;SDS011;702;49.466;11.086;2023-04-03T16:07:15;3.43;;;2.30;;
1414;SDS011;702;49.466;11.086;2023-04-03T16:09:42;3.53;;;2.33;;
1414;SDS011;702;49.466;11.086;2023-04-03T16:12:09;3.17;;;2.23;;